sensor_id;sensor_type;location;lat;lon;timestamp;P1;P2;P0
79038;PMS5003;68436;55.068;73.284;2023-07-29T00:00:45;4000.00;4000.00;4000.00
79038;PMS5003;68436;55.068;73.284;2023-07-29T00:03:11;398.50;224.75;126.75
79038;PMS5003;68436;55.068;73.284;2023-07-29T00:05:45;819.50;446.00;283.50
79038;PMS5003;68436;55.068;73.284;2023-07-29T00:08:11;3113.50;3054.25;3044.75
79038;PMS5003;68436;55.068;73.284;2023-07-29T00:10:45;490.00;283.33;183.00
79038;PMS5003;68436;55.068;73.284;2023-07-29T00:13:12;505.25;297.50;192.25
79038;PMS5003;68436;55.068;73.284;2023-07-29T00:15:45;435.00;253.50;152.00
79038;PMS5003;68436;55.068;73.284;2023-07-29T00:18:13;447.00;292.75;96.50
79038;PMS5003;68436;55.068;73.284;2023-07-29T00:20:45;679.00;443.00;154.00
79038;PMS5003;68436;55.068;73.284;2023-07-29T00:23:11;544.25;357.75;144.50
79038;PMS5003;68436;55.068;73.284;2023-07-29T00:25:45;227.33;164.33;59.67
79038;PMS5003;68436;55.068;73.284;2023-07-29T00:28:11;68.50;56.00;34.25
79038;PMS5003;68436;55.068;73.284;2023-07-29T00:30:45;467.67;328.00;134.67
79038;PMS5003;68436;55.068;73.284;2023-07-29T00:33:11;465.00;322.75;116.00
79038;PMS5003;68436;55.068;73.284;2023-07-29T00:35:45;266.00;169.00;137.00
79038;PMS5003;68436;55.068;73.284;2023-07-29T00:38:11;41.75;28.25;6.50
79038;PMS5003;68436;55.068;73.284;2023-07-29T00:40:45;257.67;181.67;77.33
79038;PMS5003;68436;55.068;73.284;2023-07-29T00:43:11;102.50;77.00;41.50
79038;PMS5003;68436;55.068;73.284;2023-07-29T00:45:45;99.00;72.00;43.33
79038;PMS5003;68436;55.068;73.284;2023-07-29T00:48:13;1285.25;1157.00;1116.75
79038;PMS5003;68436;55.068;73.284;2023-07-29T00:50:45;56.00;47.00;29.00
79038;PMS5003;68436;55.068;73.284;2023-07-29T00:53:11;96.00;81.25;33.25
79038;PMS5003;68436;55.068;73.284;2023-07-29T00:55:45;128.00;91.00;43.67
79038;PMS5003;68436;55.068;73.284;2023-07-29T00:58:11;39.50;28.75;10.75
79038;PMS5003;68436;55.068;73.284;2023-07-29T01:00:45;75.33;57.33;29.67
79038;PMS5003;68436;55.068;73.284;2023-07-29T01:03:11;32.50;28.00;16.00
79038;PMS5003;68436;55.068;73.284;2023-07-29T01:08:21;76.25;65.00;29.75
79038;PMS5003;68436;55.068;73.284;2023-07-29T01:11:08;171.00;149.00;57.50
79038;PMS5003;68436;55.068;73.284;2023-07-29T01:14:01;314.00;236.75;99.25
79038;PMS5003;68436;55.068;73.284;2023-07-29T01:16:31;115.00;92.00;33.00
79038;PMS5003;68436;55.068;73.284;2023-07-29T01:18:59;286.75;168.00;112.00
79038;PMS5003;68436;55.068;73.284;2023-07-29T01:21:31;444.67;253.33;156.67
79038;PMS5003;68436;55.068;73.284;2023-07-29T01:23:58;209.50;154.50;30.75
79038;PMS5003;68436;55.068;73.284;2023-07-29T01:26:25;4000.00;4000.00;4000.00
79038;PMS5003;68436;55.068;73.284;2023-07-29T01:28:51;4000.00;4000.00;4000.00
79038;PMS5003;68436;55.068;73.284;2023-07-29T01:31:23;4000.00;4000.00;4000.00
79038;PMS5003;68436;55.068;73.284;2023-07-29T01:33:59;4000.00;4000.00;4000.00
79038;PMS5003;68436;55.068;73.284;2023-07-29T01:36:28;4000.00;4000.00;4000.00
79038;PMS5003;68436;55.068;73.284;2023-07-29T01:38:55;4000.00;4000.00;4000.00
79038;PMS5003;68436;55.068;73.284;2023-07-29T01:41:22;4000.00;4000.00;4000.00
79038;PMS5003;68436;55.068;73.284;2023-07-29T01:43:48;4000.00;4000.00;4000.00
79038;PMS5003;68436;55.068;73.284;2023-07-29T01:46:14;4000.00;4000.00;4000.00
79038;PMS5003;68436;55.068;73.284;2023-07-29T01:48:41;3017.25;3010.50;3008.25
79038;PMS5003;68436;55.068;73.284;2023-07-29T01:51:07;4000.00;4000.00;4000.00
79038;PMS5003;68436;55.068;73.284;2023-07-29T01:53:33;1007.00;582.00;358.50
79038;PMS5003;68436;55.068;73.284;2023-07-29T01:55:59;4000.00;4000.00;4000.00
79038;PMS5003;68436;55.068;73.284;2023-07-29T01:58:25;3033.75;3020.00;3017.75
79038;PMS5003;68436;55.068;73.284;2023-07-29T02:00:52;4000.00;4000.00;4000.00
79038;PMS5003;68436;55.068;73.284;2023-07-29T02:03:18;4000.00;4000.00;4000.00
79038;PMS5003;68436;55.068;73.284;2023-07-29T02:05:45;4000.00;4000.00;4000.00
79038;PMS5003;68436;55.068;73.284;2023-07-29T02:08:11;51.00;42.00;26.75
79038;PMS5003;68436;55.068;73.284;2023-07-29T02:10:45;47.00;39.00;24.33
79038;PMS5003;68436;55.068;73.284;2023-07-29T02:13:11;107.50;100.75;37.75
79038;PMS5003;68436;55.068;73.284;2023-07-29T02:15:45;287.00;222.67;70.33
79038;PMS5003;68436;55.068;73.284;2023-07-29T02:18:11;85.25;75.00;25.25
79038;PMS5003;68436;55.068;73.284;2023-07-29T02:20:45;190.00;156.67;37.67
79038;PMS5003;68436;55.068;73.284;2023-07-29T02:23:15;202.50;183.00;53.00
79038;PMS5003;68436;55.068;73.284;2023-07-29T02:25:45;165.00;141.50;41.50
79038;PMS5003;68436;55.068;73.284;2023-07-29T02:28:11;341.75;238.00;100.50
79038;PMS5003;68436;55.068;73.284;2023-07-29T02:30:45;4000.00;4000.00;4000.00
79038;PMS5003;68436;55.068;73.284;2023-07-29T02:33:12;3093.00;3052.75;3033.00
79038;PMS5003;68436;55.068;73.284;2023-07-29T02:35:45;2285.50;2175.50;2093.50
79038;PMS5003;68436;55.068;73.284;2023-07-29T02:38:11;4000.00;4000.00;4000.00
79038;PMS5003;68436;55.068;73.284;2023-07-29T02:40:45;4000.00;4000.00;4000.00
79038;PMS5003;68436;55.068;73.284;2023-07-29T02:43:11;4000.00;4000.00;4000.00
79038;PMS5003;68436;55.068;73.284;2023-07-29T02:45:45;4000.00;4000.00;4000.00
79038;PMS5003;68436;55.068;73.284;2023-07-29T02:48:11;2219.00;2136.00;2101.50
79038;PMS5003;68436;55.068;73.284;2023-07-29T02:50:45;4000.00;4000.00;4000.00
79038;PMS5003;68436;55.068;73.284;2023-07-29T02:53:11;4000.00;4000.00;4000.00
79038;PMS5003;68436;55.068;73.284;2023-07-29T02:55:45;4000.00;4000.00;4000.00
79038;PMS5003;68436;55.068;73.284;2023-07-29T02:58:11;4000.00;4000.00;4000.00
79038;PMS5003;68436;55.068;73.284;2023-07-29T03:00:45;4000.00;4000.00;4000.00
79038;PMS5003;68436;55.068;73.284;2023-07-29T03:03:13;4000.00;4000.00;4000.00
79038;PMS5003;68436;55.068;73.284;2023-07-29T03:05:45;4000.00;4000.00;4000.00
79038;PMS5003;68436;55.068;73.284;2023-07-29T03:08:11;4000.00;4000.00;4000.00
79038;PMS5003;68436;55.068;73.284;2023-07-29T03:10:45;4000.00;4000.00;4000.00
79038;PMS5003;68436;55.068;73.284;2023-07-29T03:13:11;4000.00;4000.00;4000.00
79038;PMS5003;68436;55.068;73.284;2023-07-29T03:15:45;4000.00;4000.00;4000.00
79038;PMS5003;68436;55.068;73.284;2023-07-29T03:18:11;4000.00;4000.00;4000.00
79038;PMS5003;68436;55.068;73.284;2023-07-29T03:20:45;2793.00;2748.67;2730.67
79038;PMS5003;68436;55.068;73.284;2023-07-29T03:23:11;156.25;132.50;47.25
79038;PMS5003;68436;55.068;73.284;2023-07-29T03:25:47;260.00;205.33;81.33
79038;PMS5003;68436;55.068;73.284;2023-07-29T03:28:13;2126.75;2085.00;2053.00
79038;PMS5003;68436;55.068;73.284;2023-07-29T03:30:45;163.00;120.00;55.00
79038;PMS5003;68436;55.068;73.284;2023-07-29T03:33:11;3031.00;3023.50;3009.25
79038;PMS5003;68436;55.068;73.284;2023-07-29T03:35:45;115.33;102.67;40.67
79038;PMS5003;68436;55.068;73.284;2023-07-29T03:38:11;1146.25;1112.00;1045.25
79038;PMS5003;68436;55.068;73.284;2023-07-29T03:40:45;187.33;161.33;58.00
79038;PMS5003;68436;55.068;73.284;2023-07-29T03:43:11;213.50;171.50;64.50
79038;PMS5003;68436;55.068;73.284;2023-07-29T03:45:45;1550.00;1480.33;1393.00
79038;PMS5003;68436;55.068;73.284;2023-07-29T03:48:11;199.00;146.50;54.25
79038;PMS5003;68436;55.068;73.284;2023-07-29T03:50:45;55.00;45.67;24.00
79038;PMS5003;68436;55.068;73.284;2023-07-29T03:53:11;67.75;52.75;26.25
79038;PMS5003;68436;55.068;73.284;2023-07-29T03:55:45;466.00;300.33;179.67
79038;PMS5003;68436;55.068;73.284;2023-07-29T03:58:12;425.75;297.00;116.75
79038;PMS5003;68436;55.068;73.284;2023-07-29T04:00:45;2302.50;2180.50;2109.00
79038;PMS5003;68436;55.068;73.284;2023-07-29T04:03:11;1274.75;1186.75;1094.25
79038;PMS5003;68436;55.068;73.284;2023-07-29T04:05:45;319.00;222.67;109.67
79038;PMS5003;68436;55.068;73.284;2023-07-29T04:08:11;4000.00;4000.00;4000.00
79038;PMS5003;68436;55.068;73.284;2023-07-29T04:10:45;324.33;214.33;88.33
79038;PMS5003;68436;55.068;73.284;2023-07-29T04:13:11;4000.00;4000.00;4000.00
79038;PMS5003;68436;55.068;73.284;2023-07-29T04:15:45;2752.00;2719.00;2714.67
79038;PMS5003;68436;55.068;73.284;2023-07-29T04:18:11;4000.00;4000.00;4000.00
79038;PMS5003;68436;55.068;73.284;2023-07-29T04:20:45;4000.00;4000.00;4000.00
79038;PMS5003;68436;55.068;73.284;2023-07-29T04:23:11;4000.00;4000.00;4000.00
79038;PMS5003;68436;55.068;73.284;2023-07-29T04:25:45;4000.00;4000.00;4000.00
79038;PMS5003;68436;55.068;73.284;2023-07-29T04:28:11;4000.00;4000.00;4000.00
79038;PMS5003;68436;55.068;73.284;2023-07-29T04:30:45;4000.00;4000.00;4000.00
79038;PMS5003;68436;55.068;73.284;2023-07-29T04:33:11;4000.00;4000.00;4000.00
79038;PMS5003;68436;55.068;73.284;2023-07-29T04:35:45;4000.00;4000.00;4000.00
79038;PMS5003;68436;55.068;73.284;2023-07-29T04:38:12;4000.00;4000.00;4000.00
79038;PMS5003;68436;55.068;73.284;2023-07-29T04:40:45;1637.67;1507.67;1432.33
79038;PMS5003;68436;55.068;73.284;2023-07-29T04:43:11;4000.00;4000.00;4000.00
79038;PMS5003;68436;55.068;73.284;2023-07-29T04:45:45;4000.00;4000.00;4000.00
79038;PMS5003;68436;55.068;73.284;2023-07-29T04:48:11;156.00;151.00;51.00
79038;PMS5003;68436;55.068;73.284;2023-07-29T04:50:45;4000.00;4000.00;4000.00
79038;PMS5003;68436;55.068;73.284;2023-07-29T04:53:13;4000.00;4000.00;4000.00
79038;PMS5003;68436;55.068;73.284;2023-07-29T04:55:45;4000.00;4000.00;4000.00
79038;PMS5003;68436;55.068;73.284;2023-07-29T04:58:11;596.25;357.25;181.25
79038;PMS5003;68436;55.068;73.284;2023-07-29T05:00:48;46.33;38.33;24.00
79038;PMS5003;68436;55.068;73.284;2023-07-29T05:03:14;4000.00;4000.00;4000.00
79038;PMS5003;68436;55.068;73.284;2023-07-29T05:05:45;4000.00;4000.00;4000.00
79038;PMS5003;68436;55.068;73.284;2023-07-29T05:08:11;40.00;33.00;21.00
79038;PMS5003;68436;55.068;73.284;2023-07-29T05:10:48;1749.33;1600.33;1482.00
79038;PMS5003;68436;55.068;73.284;2023-07-29T05:13:14;335.00;239.00;116.50
79038;PMS5003;68436;55.068;73.284;2023-07-29T05:15:46;411.00;281.00;123.00
79038;PMS5003;68436;55.068;73.284;2023-07-29T05:18:12;4000.00;4000.00;4000.00
79038;PMS5003;68436;55.068;73.284;2023-07-29T05:20:46;4000.00;4000.00;4000.00
79038;PMS5003;68436;55.068;73.284;2023-07-29T05:23:12;4000.00;4000.00;4000.00
79038;PMS5003;68436;55.068;73.284;2023-07-29T05:25:45;4000.00;4000.00;4000.00
79038;PMS5003;68436;55.068;73.284;2023-07-29T05:28:11;4000.00;4000.00;4000.00
79038;PMS5003;68436;55.068;73.284;2023-07-29T05:30:45;4000.00;4000.00;4000.00
79038;PMS5003;68436;55.068;73.284;2023-07-29T05:33:11;4000.00;4000.00;4000.00
79038;PMS5003;68436;55.068;73.284;2023-07-29T05:35:45;39.00;33.00;21.00
79038;PMS5003;68436;55.068;73.284;2023-07-29T05:38:13;634.00;377.50;252.50
79038;PMS5003;68436;55.068;73.284;2023-07-29T05:40:47;303.00;213.00;76.00
79038;PMS5003;68436;55.068;73.284;2023-07-29T05:43:13;1310.25;1207.75;1086.50
79038;PMS5003;68436;55.068;73.284;2023-07-29T05:45:45;228.00;218.00;65.00
79038;PMS5003;68436;55.068;73.284;2023-07-29T05:48:11;51.00;39.75;25.00
79038;PMS5003;68436;55.068;73.284;2023-07-29T05:50:45;68.33;51.33;26.00
79038;PMS5003;68436;55.068;73.284;2023-07-29T05:53:11;44.00;37.00;24.00
79038;PMS5003;68436;55.068;73.284;2023-07-29T05:55:45;43.00;36.00;24.00
79038;PMS5003;68436;55.068;73.284;2023-07-29T05:58:11;52.75;42.75;26.00
79038;PMS5003;68436;55.068;73.284;2023-07-29T06:00:45;170.00;137.67;55.67
79038;PMS5003;68436;55.068;73.284;2023-07-29T06:03:12;42.25;35.00;22.00
79038;PMS5003;68436;55.068;73.284;2023-07-29T06:05:45;38.67;32.00;20.00
79038;PMS5003;68436;55.068;73.284;2023-07-29T06:08:11;42.00;33.75;22.00
79038;PMS5003;68436;55.068;73.284;2023-07-29T06:10:45;35.67;31.00;20.33
79038;PMS5003;68436;55.068;73.284;2023-07-29T06:13:11;66.00;56.00;44.00
79038;PMS5003;68436;55.068;73.284;2023-07-29T06:15:45;59.00;48.00;36.00
79038;PMS5003;68436;55.068;73.284;2023-07-29T06:18:11;51.00;40.25;24.00
79038;PMS5003;68436;55.068;73.284;2023-07-29T06:20:45;48.00;38.00;22.67
79038;PMS5003;68436;55.068;73.284;2023-07-29T06:23:11;44.00;37.00;22.00
79038;PMS5003;68436;55.068;73.284;2023-07-29T06:25:45;50.00;41.67;26.33
79038;PMS5003;68436;55.068;73.284;2023-07-29T06:28:11;47.50;39.50;26.50
79038;PMS5003;68436;55.068;73.284;2023-07-29T06:30:45;49.00;40.00;28.00
79038;PMS5003;68436;55.068;73.284;2023-07-29T06:33:11;73.00;67.00;56.00
79038;PMS5003;68436;55.068;73.284;2023-07-29T06:35:45;61.00;53.00;36.00
79038;PMS5003;68436;55.068;73.284;2023-07-29T06:38:11;35.00;31.00;20.00
79038;PMS5003;68436;55.068;73.284;2023-07-29T06:40:45;34.00;29.00;19.00
79038;PMS5003;68436;55.068;73.284;2023-07-29T06:43:11;37.00;32.00;20.00
79038;PMS5003;68436;55.068;73.284;2023-07-29T06:45:56;66.00;51.00;31.00
79038;PMS5003;68436;55.068;73.284;2023-07-29T06:48:22;74.00;56.00;32.00
79038;PMS5003;68436;55.068;73.284;2023-07-29T06:50:48;36.67;31.00;19.00
79038;PMS5003;68436;55.068;73.284;2023-07-29T06:53:16;79.75;61.00;33.00
79038;PMS5003;68436;55.068;73.284;2023-07-29T06:55:45;49.00;39.00;22.50
79038;PMS5003;68436;55.068;73.284;2023-07-29T06:58:11;38.00;31.25;20.00
79038;PMS5003;68436;55.068;73.284;2023-07-29T07:00:45;32.00;27.00;17.00
79038;PMS5003;68436;55.068;73.284;2023-07-29T07:03:11;49.00;38.50;22.75
79038;PMS5003;68436;55.068;73.284;2023-07-29T07:05:45;39.67;32.33;20.00
79038;PMS5003;68436;55.068;73.284;2023-07-29T07:08:11;38.00;31.00;18.00
79038;PMS5003;68436;55.068;73.284;2023-07-29T07:10:46;54.67;42.33;24.67
79038;PMS5003;68436;55.068;73.284;2023-07-29T07:13:12;51.50;39.50;23.00
79038;PMS5003;68436;55.068;73.284;2023-07-29T07:15:45;39.50;33.00;20.00
79038;PMS5003;68436;55.068;73.284;2023-07-29T07:18:11;51.50;40.25;24.00
79038;PMS5003;68436;55.068;73.284;2023-07-29T07:20:47;38.33;32.00;20.00
79038;PMS5003;68436;55.068;73.284;2023-07-29T07:23:13;52.00;40.00;22.75
79038;PMS5003;68436;55.068;73.284;2023-07-29T07:25:45;48.00;39.00;23.00
79038;PMS5003;68436;55.068;73.284;2023-07-29T07:28:11;52.00;41.25;24.00
79038;PMS5003;68436;55.068;73.284;2023-07-29T07:30:45;49.33;39.00;22.33
79038;PMS5003;68436;55.068;73.284;2023-07-29T07:33:11;54.00;43.00;24.25
79038;PMS5003;68436;55.068;73.284;2023-07-29T07:35:45;46.00;36.33;21.67
79038;PMS5003;68436;55.068;73.284;2023-07-29T07:38:11;48.25;38.25;23.50
79038;PMS5003;68436;55.068;73.284;2023-07-29T07:40:54;46.00;37.00;22.00
79038;PMS5003;68436;55.068;73.284;2023-07-29T07:43:23;43.00;35.00;22.00
79038;PMS5003;68436;55.068;73.284;2023-07-29T07:45:49;44.00;36.00;22.75
79038;PMS5003;68436;55.068;73.284;2023-07-29T07:48:15;33.00;28.25;18.50
79038;PMS5003;68436;55.068;73.284;2023-07-29T07:50:45;55.50;44.00;26.00
79038;PMS5003;68436;55.068;73.284;2023-07-29T07:53:11;36.00;30.00;19.00
79038;PMS5003;68436;55.068;73.284;2023-07-29T07:55:45;36.00;30.00;19.00
79038;PMS5003;68436;55.068;73.284;2023-07-29T07:58:12;42.00;34.00;21.00
79038;PMS5003;68436;55.068;73.284;2023-07-29T08:00:45;32.00;28.00;18.00
79038;PMS5003;68436;55.068;73.284;2023-07-29T08:03:11;34.00;28.25;17.25
79038;PMS5003;68436;55.068;73.284;2023-07-29T08:05:45;40.00;33.00;20.00
79038;PMS5003;68436;55.068;73.284;2023-07-29T08:08:11;32.00;27.00;17.00
79038;PMS5003;68436;55.068;73.284;2023-07-29T08:10:45;30.33;26.00;17.33
79038;PMS5003;68436;55.068;73.284;2023-07-29T08:13:11;30.75;26.25;17.25
79038;PMS5003;68436;55.068;73.284;2023-07-29T08:15:46;78.67;59.00;32.67
79038;PMS5003;68436;55.068;73.284;2023-07-29T08:18:12;42.00;33.00;19.00
79038;PMS5003;68436;55.068;73.284;2023-07-29T08:20:55;52.00;40.33;23.00
79038;PMS5003;68436;55.068;73.284;2023-07-29T08:23:21;33.75;28.25;17.50
79038;PMS5003;68436;55.068;73.284;2023-07-29T08:25:54;37.00;30.00;18.00
79038;PMS5003;68436;55.068;73.284;2023-07-29T08:28:22;46.25;37.00;22.00
79038;PMS5003;68436;55.068;73.284;2023-07-29T08:30:48;36.33;30.67;19.67
79038;PMS5003;68436;55.068;73.284;2023-07-29T08:33:14;27.75;24.00;16.00
79038;PMS5003;68436;55.068;73.284;2023-07-29T08:35:45;29.00;25.50;16.00
79038;PMS5003;68436;55.068;73.284;2023-07-29T08:38:11;32.00;27.00;17.00
79038;PMS5003;68436;55.068;73.284;2023-07-29T08:40:46;27.67;25.00;16.00
79038;PMS5003;68436;55.068;73.284;2023-07-29T08:43:14;29.50;25.75;17.00
79038;PMS5003;68436;55.068;73.284;2023-07-29T08:45:45;26.00;24.00;16.00
79038;PMS5003;68436;55.068;73.284;2023-07-29T08:48:11;39.00;31.00;19.00
79038;PMS5003;68436;55.068;73.284;2023-07-29T08:50:45;37.00;29.00;18.00
79038;PMS5003;68436;55.068;73.284;2023-07-29T08:53:12;41.50;33.00;21.00
79038;PMS5003;68436;55.068;73.284;2023-07-29T08:55:45;34.00;28.00;18.00
79038;PMS5003;68436;55.068;73.284;2023-07-29T08:58:11;34.00;27.75;17.00
79038;PMS5003;68436;55.068;73.284;2023-07-29T09:00:45;30.00;26.00;16.00
79038;PMS5003;68436;55.068;73.284;2023-07-29T09:03:12;30.00;26.00;16.50
79038;PMS5003;68436;55.068;73.284;2023-07-29T09:05:45;59.50;45.00;25.50
79038;PMS5003;68436;55.068;73.284;2023-07-29T09:08:11;26.00;23.00;15.00
79038;PMS5003;68436;55.068;73.284;2023-07-29T09:10:45;27.00;24.00;14.33
79038;PMS5003;68436;55.068;73.284;2023-07-29T09:13:12;25.00;22.00;14.00
79038;PMS5003;68436;55.068;73.284;2023-07-29T09:15:45;29.00;25.00;17.00
79038;PMS5003;68436;55.068;73.284;2023-07-29T09:18:12;25.00;22.00;15.00
79038;PMS5003;68436;55.068;73.284;2023-07-29T09:20:49;43.00;35.00;21.00
79038;PMS5003;68436;55.068;73.284;2023-07-29T09:23:15;27.50;24.50;16.00
79038;PMS5003;68436;55.068;73.284;2023-07-29T09:25:48;23.50;22.00;15.00
79038;PMS5003;68436;55.068;73.284;2023-07-29T09:28:15;31.00;26.50;17.00
79038;PMS5003;68436;55.068;73.284;2023-07-29T09:30:45;23.00;22.00;15.00
79038;PMS5003;68436;55.068;73.284;2023-07-29T09:33:12;27.00;23.00;16.00
79038;PMS5003;68436;55.068;73.284;2023-07-29T09:35:45;26.00;23.00;15.00
79038;PMS5003;68436;55.068;73.284;2023-07-29T09:38:14;24.75;23.00;14.25
79038;PMS5003;68436;55.068;73.284;2023-07-29T09:40:45;27.00;24.00;16.00
79038;PMS5003;68436;55.068;73.284;2023-07-29T09:43:11;32.00;27.75;17.00
79038;PMS5003;68436;55.068;73.284;2023-07-29T09:45:45;23.33;21.67;13.33
79038;PMS5003;68436;55.068;73.284;2023-07-29T09:48:11;26.50;23.00;14.50
79038;PMS5003;68436;55.068;73.284;2023-07-29T09:50:46;27.00;23.00;15.00
79038;PMS5003;68436;55.068;73.284;2023-07-29T09:53:17;35.00;29.00;18.00
79038;PMS5003;68436;55.068;73.284;2023-07-29T09:55:48;28.00;24.00;16.00
79038;PMS5003;68436;55.068;73.284;2023-07-29T09:58:19;25.00;22.00;14.00
79038;PMS5003;68436;55.068;73.284;2023-07-29T10:00:51;26.00;22.50;14.00
79038;PMS5003;68436;55.068;73.284;2023-07-29T10:03:18;27.00;23.00;14.00
79038;PMS5003;68436;55.068;73.284;2023-07-29T10:05:47;49.00;37.00;22.50
79038;PMS5003;68436;55.068;73.284;2023-07-29T10:08:13;30.25;25.00;16.00
79038;PMS5003;68436;55.068;73.284;2023-07-29T10:10:45;25.00;23.00;16.00
79038;PMS5003;68436;55.068;73.284;2023-07-29T10:13:11;24.00;22.00;15.00
79038;PMS5003;68436;55.068;73.284;2023-07-29T10:15:45;17.50;16.00;12.00
79038;PMS5003;68436;55.068;73.284;2023-07-29T10:18:11;18.00;17.00;12.00
79038;PMS5003;68436;55.068;73.284;2023-07-29T10:20:45;44.00;34.33;20.00
79038;PMS5003;68436;55.068;73.284;2023-07-29T10:23:13;20.25;18.50;12.00
79038;PMS5003;68436;55.068;73.284;2023-07-29T10:25:47;20.00;17.00;12.00
79038;PMS5003;68436;55.068;73.284;2023-07-29T10:28:13;38.25;31.00;18.50
79038;PMS5003;68436;55.068;73.284;2023-07-29T10:30:45;46.00;35.50;21.00
79038;PMS5003;68436;55.068;73.284;2023-07-29T10:33:12;19.75;17.50;11.50
79038;PMS5003;68436;55.068;73.284;2023-07-29T10:35:45;29.00;25.00;15.00
79038;PMS5003;68436;55.068;73.284;2023-07-29T10:38:11;17.75;16.50;11.00
79038;PMS5003;68436;55.068;73.284;2023-07-29T10:40:50;27.00;24.50;15.00
79038;PMS5003;68436;55.068;73.284;2023-07-29T10:45:52;23.00;21.00;14.00
79038;PMS5003;68436;55.068;73.284;2023-07-29T10:53:44;20.00;18.25;12.00
79038;PMS5003;68436;55.068;73.284;2023-07-29T10:56:10;17.00;16.00;10.00
79038;PMS5003;68436;55.068;73.284;2023-07-29T10:58:38;17.50;15.50;10.75
79038;PMS5003;68436;55.068;73.284;2023-07-29T11:01:20;17.67;16.33;11.00
79038;PMS5003;68436;55.068;73.284;2023-07-29T11:04:52;55.25;43.00;24.00
79038;PMS5003;68436;55.068;73.284;2023-07-29T11:09:40;33.00;28.00;18.00
79038;PMS5003;68436;55.068;73.284;2023-07-29T11:14:52;20.00;17.00;11.00
79038;PMS5003;68436;55.068;73.284;2023-07-29T11:17:18;42.00;32.33;19.00
79038;PMS5003;68436;55.068;73.284;2023-07-29T11:19:44;26.00;22.00;13.00
79038;PMS5003;68436;55.068;73.284;2023-07-29T11:22:10;41.00;32.00;19.00
79038;PMS5003;68436;55.068;73.284;2023-07-29T11:24:37;16.50;15.25;10.25
79038;PMS5003;68436;55.068;73.284;2023-07-29T11:27:03;17.00;15.67;10.00
79038;PMS5003;68436;55.068;73.284;2023-07-29T11:29:29;23.00;19.50;12.00
79038;PMS5003;68436;55.068;73.284;2023-07-29T11:31:55;23.00;20.00;12.00
79038;PMS5003;68436;55.068;73.284;2023-07-29T11:34:31;18.75;16.50;10.50
79038;PMS5003;68436;55.068;73.284;2023-07-29T11:36:58;25.00;21.50;14.00
79038;PMS5003;68436;55.068;73.284;2023-07-29T11:39:24;34.75;27.00;17.25
79038;PMS5003;68436;55.068;73.284;2023-07-29T11:41:51;37.33;30.00;17.00
79038;PMS5003;68436;55.068;73.284;2023-07-29T11:44:17;18.00;17.00;11.00
79038;PMS5003;68436;55.068;73.284;2023-07-29T11:46:43;19.00;16.00;10.00
79038;PMS5003;68436;55.068;73.284;2023-07-29T11:49:09;17.00;16.00;10.00
79038;PMS5003;68436;55.068;73.284;2023-07-29T11:51:36;30.00;24.00;15.00
79038;PMS5003;68436;55.068;73.284;2023-07-29T11:54:02;17.75;16.00;11.00
79038;PMS5003;68436;55.068;73.284;2023-07-29T11:56:29;25.00;23.00;14.33
79038;PMS5003;68436;55.068;73.284;2023-07-29T11:58:56;17.00;14.25;9.25
79038;PMS5003;68436;55.068;73.284;2023-07-29T12:01:22;21.00;19.00;12.00
79038;PMS5003;68436;55.068;73.284;2023-07-29T12:03:48;25.75;23.00;15.00
79038;PMS5003;68436;55.068;73.284;2023-07-29T12:06:15;55.67;41.33;23.00
79038;PMS5003;68436;55.068;73.284;2023-07-29T12:08:42;62.50;46.00;25.00
79038;PMS5003;68436;55.068;73.284;2023-07-29T12:11:09;32.00;25.00;15.00
79038;PMS5003;68436;55.068;73.284;2023-07-29T12:13:38;28.00;23.75;14.00
79038;PMS5003;68436;55.068;73.284;2023-07-29T12:16:04;22.00;19.00;12.00
79038;PMS5003;68436;55.068;73.284;2023-07-29T12:18:31;27.75;23.00;14.00
79038;PMS5003;68436;55.068;73.284;2023-07-29T12:20:57;19.00;16.00;10.00
79038;PMS5003;68436;55.068;73.284;2023-07-29T12:23:24;18.00;16.00;11.00
79038;PMS5003;68436;55.068;73.284;2023-07-29T12:25:50;16.00;14.00;10.00
79038;PMS5003;68436;55.068;73.284;2023-07-29T12:28:17;13.25;12.00;8.00
79038;PMS5003;68436;55.068;73.284;2023-07-29T12:30:45;30.00;25.00;14.00
79038;PMS5003;68436;55.068;73.284;2023-07-29T12:33:11;16.00;14.75;10.00
79038;PMS5003;68436;55.068;73.284;2023-07-29T12:35:45;16.33;14.67;10.00
79038;PMS5003;68436;55.068;73.284;2023-07-29T12:38:11;17.25;16.00;11.00
79038;PMS5003;68436;55.068;73.284;2023-07-29T12:40:45;18.00;16.00;10.00
79038;PMS5003;68436;55.068;73.284;2023-07-29T12:43:11;16.00;15.00;10.00
79038;PMS5003;68436;55.068;73.284;2023-07-29T12:45:45;20.00;18.00;11.67
79038;PMS5003;68436;55.068;73.284;2023-07-29T12:48:11;16.00;14.00;10.00
79038;PMS5003;68436;55.068;73.284;2023-07-29T12:50:45;17.00;16.00;9.00
79038;PMS5003;68436;55.068;73.284;2023-07-29T12:53:11;16.00;14.00;10.00
79038;PMS5003;68436;55.068;73.284;2023-07-29T12:55:45;16.00;15.00;10.00
79038;PMS5003;68436;55.068;73.284;2023-07-29T12:58:11;25.00;21.00;14.00
79038;PMS5003;68436;55.068;73.284;2023-07-29T13:00:45;18.00;16.00;10.00
79038;PMS5003;68436;55.068;73.284;2023-07-29T13:03:11;18.00;16.00;11.00
79038;PMS5003;68436;55.068;73.284;2023-07-29T13:05:45;16.00;15.00;9.00
79038;PMS5003;68436;55.068;73.284;2023-07-29T13:08:11;69.50;50.50;28.25
79038;PMS5003;68436;55.068;73.284;2023-07-29T13:10:45;19.00;16.00;10.67
79038;PMS5003;68436;55.068;73.284;2023-07-29T13:13:11;20.75;19.00;12.00
79038;PMS5003;68436;55.068;73.284;2023-07-29T13:15:45;23.00;20.00;13.00
79038;PMS5003;68436;55.068;73.284;2023-07-29T13:18:11;14.75;13.50;9.00
79038;PMS5003;68436;55.068;73.284;2023-07-29T13:20:45;128.00;94.00;44.00
79038;PMS5003;68436;55.068;73.284;2023-07-29T13:23:11;26.75;23.25;14.00
79038;PMS5003;68436;55.068;73.284;2023-07-29T13:25:45;18.00;16.00;10.00
79038;PMS5003;68436;55.068;73.284;2023-07-29T13:28:11;17.00;15.00;10.25
79038;PMS5003;68436;55.068;73.284;2023-07-29T13:30:45;28.00;24.00;15.00
79038;PMS5003;68436;55.068;73.284;2023-07-29T13:33:11;19.00;17.00;11.00
79038;PMS5003;68436;55.068;73.284;2023-07-29T13:35:45;17.00;15.33;10.00
79038;PMS5003;68436;55.068;73.284;2023-07-29T13:38:11;18.00;16.00;9.00
79038;PMS5003;68436;55.068;73.284;2023-07-29T13:40:45;18.00;16.00;10.00
79038;PMS5003;68436;55.068;73.284;2023-07-29T13:43:11;43.25;32.75;19.25